02:15
Airports
Links
Donate
Help keep this website running!
PayPal
Bitcoin
METAR
NSTU 240150Z 05010KT 7SM -SHRA SCT015 BKN040 OVC080 26/25 A2986 RMK SLP112 T02570246
Current Weather Conditions at NSTU
VFR 01:50:00 24-02-18
Altimeter:29.86 hg
Temp:25.7°c 77°f
Dew point:24.6°c 75°f
Wind:10 knots, 11.5 mph, 5 m/s, from 50°
Visibility:7.0 statute miles
8000(OVC) Overcast
4000(BKN) Broken
1500(SCT) Scattered
Past METAR reports
VFR 00:50:00 24-02-18
Altimeter:29.87 hg
Temp:25.8°c 77°f
Dew point:24.5°c 75°f
Wind:7 knots, 8.1 mph, 4 m/s, from 50°
Visibility:10.0 statute miles
8000(OVC) Overcast
4000(BKN) Broken
1500(SCT) Scattered
NSTU 240050Z 05007KT 10SM -SHRA SCT015TCU BKN040 OVC080 26/25 A2987 RMK TCU ALQDS SLP115 T02580245
VFR 23:50:00 23-02-18
Altimeter:29.87 hg
Temp:26.7°c 79°f
Dew point:24.7°c 75°f
Wind:12 knots, 13.8 mph, 6 m/s, from 60°
Visibility:10.0 statute miles
8000(OVC) Overcast
4000(BKN) Broken
1500(SCT) Scattered
NSTU 232350Z 06012KT 10SM -SHRA SCT015TCU BKN040 OVC080 27/25 A2987 RMK TCU NE-SE SLP117 60056 8/42/ T02670247 10270 20249 56008
VFR 22:50:00 23-02-18
Altimeter:29.89 hg
Temp:27.0°c 81°f
Dew point:24.8°c 75°f
Wind:9 knots, 10.4 mph, 5 m/s, from 60°
Visibility:10.0 statute miles
8000(OVC) Overcast
4000(BKN) Broken
1600(SCT) Scattered
NSTU 232250Z 06009KT 10SM -SHRA SCT016TCU BKN040 OVC080 27/25 A2989 RMK TCU NE-SE SLP122 T02700248
MVFR 21:51:00 23-02-18
Altimeter:29.91 hg
Temp:25.5°c 77°f
Dew point:24.9°c 75°f
Wind:7 knots, 8.1 mph, 4 m/s, from 80°
Visibility:5.0 statute miles
8000(OVC) Overcast
4000(BKN) Broken
1500(SCT) Scattered
NSTU 232151Z 08007KT 5SM SHRA SCT015TCU BKN040 OVC080 26/25 A2991 RMK TCU ALQDS SLP129 T02550249
VFR 20:50:00 23-02-18
Altimeter:29.90 hg
Temp:25.5°c 77°f
Dew point:24.0°c 75°f
Wind:7 knots, 8.1 mph, 4 m/s, from 30°
Visibility:6.0 statute miles
8000(OVC) Overcast
4000(BKN) Broken
1400(SCT) Scattered
NSTU 232050Z 03007KT 6SM SHRA SCT014TCU BKN040 OVC080 26/24 A2990 RMK TCU ALQDS SLP125 60028 8/42/ T02550240 53008
TAF
NSTU 232320Z 2400/2424 02010KT 6SM SHRA VCTS SCT015CB BKN035 OVC050 FM240600 36005KT P6SM VCSH SCT015 BKN040 BKN100
Forecast at NSTU
00:00 24-02-18 to 06:00 24-02-18
SHRA VCTS
Wind:10 Knots from 20°
Visibility:6.0 statute miles
1500SCT Scattered
3500BKN Broken
5000OVC Overcast
FM 06:00 24-02-18 to 00:00 25-02-18
VCSH
Wind:5 Knots from 360°
Visibility:6.21 statute miles
1500SCT Scattered
4000BKN Broken
10000BKN Broken